sensor_id;sensor_type;location;lat;lon;timestamp;P1;durP1;ratioP1;P2;durP2;ratioP2
41653;SDS011;30790;52.030;7.110;2022-10-22T00:02:23;3.97;;;1.98;;
41653;SDS011;30790;52.030;7.110;2022-10-22T00:04:49;3.85;;;2.13;;
41653;SDS011;30790;52.030;7.110;2022-10-22T00:07:16;6.13;;;2.83;;
41653;SDS011;30790;52.030;7.110;2022-10-22T00:09:42;3.30;;;1.90;;
41653;SDS011;30790;52.030;7.110;2022-10-22T00:12:07;5.32;;;2.10;;
41653;SDS011;30790;52.030;7.110;2022-10-22T00:14:33;5.03;;;2.20;;
41653;SDS011;30790;52.030;7.110;2022-10-22T00:16:58;3.13;;;2.28;;
41653;SDS011;30790;52.030;7.110;2022-10-22T00:19:25;3.63;;;2.08;;
41653;SDS011;30790;52.030;7.110;2022-10-22T00:21:51;3.90;;;2.20;;
41653;SDS011;30790;52.030;7.110;2022-10-22T00:24:16;6.85;;;2.55;;
41653;SDS011;30790;52.030;7.110;2022-10-22T00:26:41;3.22;;;2.15;;
41653;SDS011;30790;52.030;7.110;2022-10-22T00:29:07;5.03;;;2.50;;
41653;SDS011;30790;52.030;7.110;2022-10-22T00:31:32;4.88;;;2.35;;
41653;SDS011;30790;52.030;7.110;2022-10-22T00:33:58;4.53;;;2.50;;
41653;SDS011;30790;52.030;7.110;2022-10-22T00:36:23;3.50;;;2.35;;
41653;SDS011;30790;52.030;7.110;2022-10-22T00:38:48;2.67;;;1.75;;
41653;SDS011;30790;52.030;7.110;2022-10-22T00:41:13;3.28;;;2.30;;
41653;SDS011;30790;52.030;7.110;2022-10-22T00:46:55;2.92;;;2.03;;
41653;SDS011;30790;52.030;7.110;2022-10-22T00:49:21;4.35;;;2.08;;
41653;SDS011;30790;52.030;7.110;2022-10-22T00:51:46;3.00;;;1.73;;
41653;SDS011;30790;52.030;7.110;2022-10-22T00:54:11;5.68;;;2.30;;
41653;SDS011;30790;52.030;7.110;2022-10-22T00:56:37;4.72;;;2.70;;
41653;SDS011;30790;52.030;7.110;2022-10-22T00:59:02;3.80;;;2.47;;
41653;SDS011;30790;52.030;7.110;2022-10-22T01:01:28;5.32;;;2.30;;
41653;SDS011;30790;52.030;7.110;2022-10-22T01:03:55;4.10;;;2.17;;
41653;SDS011;30790;52.030;7.110;2022-10-22T01:06:23;4.53;;;2.53;;
41653;SDS011;30790;52.030;7.110;2022-10-22T01:18:59;3.63;;;1.83;;
41653;SDS011;30790;52.030;7.110;2022-10-22T01:21:41;3.95;;;1.63;;
41653;SDS011;30790;52.030;7.110;2022-10-22T01:24:25;3.63;;;1.92;;
41653;SDS011;30790;52.030;7.110;2022-10-22T01:29:25;4.37;;;1.80;;
41653;SDS011;30790;52.030;7.110;2022-10-22T01:31:58;7.10;;;2.13;;
41653;SDS011;30790;52.030;7.110;2022-10-22T01:34:27;3.88;;;2.28;;
41653;SDS011;30790;52.030;7.110;2022-10-22T01:36:54;5.88;;;2.30;;
41653;SDS011;30790;52.030;7.110;2022-10-22T01:39:21;3.47;;;1.95;;
41653;SDS011;30790;52.030;7.110;2022-10-22T01:41:49;3.13;;;2.08;;
41653;SDS011;30790;52.030;7.110;2022-10-22T01:44:24;2.58;;;1.92;;
41653;SDS011;30790;52.030;7.110;2022-10-22T01:47:15;3.30;;;2.10;;
41653;SDS011;30790;52.030;7.110;2022-10-22T01:50:07;2.80;;;1.75;;
41653;SDS011;30790;52.030;7.110;2022-10-22T01:52:46;2.47;;;2.08;;
41653;SDS011;30790;52.030;7.110;2022-10-22T01:55:30;2.97;;;1.77;;
41653;SDS011;30790;52.030;7.110;2022-10-22T02:00:50;4.70;;;2.30;;
41653;SDS011;30790;52.030;7.110;2022-10-22T02:03:36;4.15;;;1.90;;
41653;SDS011;30790;52.030;7.110;2022-10-22T02:06:30;4.68;;;2.08;;
41653;SDS011;30790;52.030;7.110;2022-10-22T02:08:57;4.38;;;2.25;;
41653;SDS011;30790;52.030;7.110;2022-10-22T02:11:24;3.85;;;1.70;;
41653;SDS011;30790;52.030;7.110;2022-10-22T02:13:52;2.88;;;2.10;;
41653;SDS011;30790;52.030;7.110;2022-10-22T02:16:22;4.00;;;2.25;;
41653;SDS011;30790;52.030;7.110;2022-10-22T02:18:54;4.07;;;2.33;;
41653;SDS011;30790;52.030;7.110;2022-10-22T02:21:22;4.03;;;2.28;;
41653;SDS011;30790;52.030;7.110;2022-10-22T02:23:48;4.57;;;2.50;;
41653;SDS011;30790;52.030;7.110;2022-10-22T02:26:15;3.22;;;2.58;;
41653;SDS011;30790;52.030;7.110;2022-10-22T02:31:35;3.25;;;2.03;;
41653;SDS011;30790;52.030;7.110;2022-10-22T02:34:06;2.88;;;1.98;;
41653;SDS011;30790;52.030;7.110;2022-10-22T02:36:35;3.65;;;2.13;;
41653;SDS011;30790;52.030;7.110;2022-10-22T02:39:02;2.15;;;1.70;;
41653;SDS011;30790;52.030;7.110;2022-10-22T02:41:29;2.85;;;1.98;;
41653;SDS011;30790;52.030;7.110;2022-10-22T02:43:55;2.63;;;1.92;;
41653;SDS011;30790;52.030;7.110;2022-10-22T02:46:21;4.57;;;2.22;;
41653;SDS011;30790;52.030;7.110;2022-10-22T02:48:47;3.67;;;2.10;;
41653;SDS011;30790;52.030;7.110;2022-10-22T02:51:12;2.40;;;1.70;;
41653;SDS011;30790;52.030;7.110;2022-10-22T02:53:38;2.22;;;1.92;;
41653;SDS011;30790;52.030;7.110;2022-10-22T02:56:03;5.30;;;2.10;;
41653;SDS011;30790;52.030;7.110;2022-10-22T02:58:29;4.10;;;2.05;;
41653;SDS011;30790;52.030;7.110;2022-10-22T03:00:54;4.38;;;2.10;;
41653;SDS011;30790;52.030;7.110;2022-10-22T03:03:19;2.50;;;1.80;;
41653;SDS011;30790;52.030;7.110;2022-10-22T03:05:45;3.38;;;1.75;;
41653;SDS011;30790;52.030;7.110;2022-10-22T03:08:10;3.10;;;1.83;;
41653;SDS011;30790;52.030;7.110;2022-10-22T03:10:35;2.15;;;1.55;;
41653;SDS011;30790;52.030;7.110;2022-10-22T03:13:01;2.67;;;1.70;;
41653;SDS011;30790;52.030;7.110;2022-10-22T03:15:26;3.15;;;1.83;;
41653;SDS011;30790;52.030;7.110;2022-10-22T03:17:51;3.30;;;2.22;;
41653;SDS011;30790;52.030;7.110;2022-10-22T03:20:16;3.72;;;2.10;;
41653;SDS011;30790;52.030;7.110;2022-10-22T03:22:42;2.75;;;1.80;;
41653;SDS011;30790;52.030;7.110;2022-10-22T03:25:09;2.20;;;1.67;;
41653;SDS011;30790;52.030;7.110;2022-10-22T03:27:39;3.60;;;1.70;;
41653;SDS011;30790;52.030;7.110;2022-10-22T03:30:05;3.92;;;1.98;;
41653;SDS011;30790;52.030;7.110;2022-10-22T03:32:31;2.85;;;1.80;;
41653;SDS011;30790;52.030;7.110;2022-10-22T03:34:56;3.17;;;1.85;;
41653;SDS011;30790;52.030;7.110;2022-10-22T03:37:22;2.70;;;1.88;;
41653;SDS011;30790;52.030;7.110;2022-10-22T03:39:49;2.75;;;1.73;;
41653;SDS011;30790;52.030;7.110;2022-10-22T03:42:16;2.17;;;1.70;;
41653;SDS011;30790;52.030;7.110;2022-10-22T03:44:41;2.85;;;1.58;;
41653;SDS011;30790;52.030;7.110;2022-10-22T03:47:07;2.95;;;1.73;;
41653;SDS011;30790;52.030;7.110;2022-10-22T03:49:33;2.28;;;1.85;;
41653;SDS011;30790;52.030;7.110;2022-10-22T03:52:04;5.55;;;1.88;;
41653;SDS011;30790;52.030;7.110;2022-10-22T03:54:30;3.33;;;1.67;;
41653;SDS011;30790;52.030;7.110;2022-10-22T03:56:56;3.33;;;1.67;;
41653;SDS011;30790;52.030;7.110;2022-10-22T03:59:21;2.93;;;1.90;;
41653;SDS011;30790;52.030;7.110;2022-10-22T04:01:46;2.40;;;1.67;;
41653;SDS011;30790;52.030;7.110;2022-10-22T04:04:11;1.50;;;1.38;;
41653;SDS011;30790;52.030;7.110;2022-10-22T04:06:37;1.90;;;1.67;;
41653;SDS011;30790;52.030;7.110;2022-10-22T04:09:02;2.67;;;1.83;;
41653;SDS011;30790;52.030;7.110;2022-10-22T04:11:27;3.17;;;1.88;;
41653;SDS011;30790;52.030;7.110;2022-10-22T04:13:53;2.50;;;1.70;;
41653;SDS011;30790;52.030;7.110;2022-10-22T04:16:19;2.60;;;1.75;;
41653;SDS011;30790;52.030;7.110;2022-10-22T04:18:46;3.17;;;1.60;;
41653;SDS011;30790;52.030;7.110;2022-10-22T04:21:14;1.75;;;1.20;;
41653;SDS011;30790;52.030;7.110;2022-10-22T04:23:45;3.45;;;1.88;;
41653;SDS011;30790;52.030;7.110;2022-10-22T04:26:11;3.90;;;1.50;;
41653;SDS011;30790;52.030;7.110;2022-10-22T04:28:36;1.83;;;1.63;;
41653;SDS011;30790;52.030;7.110;2022-10-22T04:31:06;2.38;;;1.67;;
41653;SDS011;30790;52.030;7.110;2022-10-22T04:33:36;3.40;;;1.60;;
41653;SDS011;30790;52.030;7.110;2022-10-22T04:36:05;2.30;;;1.70;;
41653;SDS011;30790;52.030;7.110;2022-10-22T04:38:35;1.90;;;1.60;;
41653;SDS011;30790;52.030;7.110;2022-10-22T04:41:09;3.88;;;1.50;;
41653;SDS011;30790;52.030;7.110;2022-10-22T04:43:36;2.80;;;1.65;;
41653;SDS011;30790;52.030;7.110;2022-10-22T04:46:01;3.00;;;1.70;;
41653;SDS011;30790;52.030;7.110;2022-10-22T04:48:27;3.10;;;2.08;;
41653;SDS011;30790;52.030;7.110;2022-10-22T04:50:52;3.17;;;1.70;;
41653;SDS011;30790;52.030;7.110;2022-10-22T04:53:18;2.13;;;1.60;;
41653;SDS011;30790;52.030;7.110;2022-10-22T04:55:43;2.00;;;1.60;;
41653;SDS011;30790;52.030;7.110;2022-10-22T04:58:08;2.63;;;1.55;;
41653;SDS011;30790;52.030;7.110;2022-10-22T05:00:33;1.90;;;1.40;;
41653;SDS011;30790;52.030;7.110;2022-10-22T05:02:59;3.63;;;1.90;;
41653;SDS011;30790;52.030;7.110;2022-10-22T05:05:24;2.00;;;1.40;;
41653;SDS011;30790;52.030;7.110;2022-10-22T05:07:50;2.50;;;1.80;;
41653;SDS011;30790;52.030;7.110;2022-10-22T05:10:15;1.73;;;1.40;;
41653;SDS011;30790;52.030;7.110;2022-10-22T05:12:41;1.77;;;1.50;;
41653;SDS011;30790;52.030;7.110;2022-10-22T05:15:06;2.33;;;1.60;;
41653;SDS011;30790;52.030;7.110;2022-10-22T05:17:34;1.58;;;1.48;;
41653;SDS011;30790;52.030;7.110;2022-10-22T05:20:00;2.35;;;1.45;;
41653;SDS011;30790;52.030;7.110;2022-10-22T05:22:25;2.22;;;1.77;;
41653;SDS011;30790;52.030;7.110;2022-10-22T05:24:50;2.53;;;1.50;;
41653;SDS011;30790;52.030;7.110;2022-10-22T05:27:15;2.78;;;1.50;;
41653;SDS011;30790;52.030;7.110;2022-10-22T05:29:41;1.58;;;1.48;;
41653;SDS011;30790;52.030;7.110;2022-10-22T05:32:06;2.47;;;1.70;;
41653;SDS011;30790;52.030;7.110;2022-10-22T05:34:31;2.05;;;1.55;;
41653;SDS011;30790;52.030;7.110;2022-10-22T05:36:57;2.47;;;1.83;;
41653;SDS011;30790;52.030;7.110;2022-10-22T05:39:22;1.92;;;1.70;;
41653;SDS011;30790;52.030;7.110;2022-10-22T05:41:48;2.67;;;1.60;;
41653;SDS011;30790;52.030;7.110;2022-10-22T05:44:13;5.38;;;1.70;;
41653;SDS011;30790;52.030;7.110;2022-10-22T05:46:38;8.50;;;2.38;;
41653;SDS011;30790;52.030;7.110;2022-10-22T05:49:04;1.80;;;1.40;;
41653;SDS011;30790;52.030;7.110;2022-10-22T05:51:31;3.38;;;1.65;;
41653;SDS011;30790;52.030;7.110;2022-10-22T05:53:59;4.18;;;2.00;;
41653;SDS011;30790;52.030;7.110;2022-10-22T05:56:27;8.38;;;2.55;;
41653;SDS011;30790;52.030;7.110;2022-10-22T05:58:53;4.47;;;1.55;;
41653;SDS011;30790;52.030;7.110;2022-10-22T06:03:56;6.45;;;1.75;;
41653;SDS011;30790;52.030;7.110;2022-10-22T06:08:48;10.00;;;2.20;;
41653;SDS011;30790;52.030;7.110;2022-10-22T06:11:15;6.95;;;2.40;;
41653;SDS011;30790;52.030;7.110;2022-10-22T06:13:43;8.32;;;2.20;;
41653;SDS011;30790;52.030;7.110;2022-10-22T06:16:09;7.95;;;2.13;;
41653;SDS011;30790;52.030;7.110;2022-10-22T06:18:34;8.23;;;2.08;;
41653;SDS011;30790;52.030;7.110;2022-10-22T06:21:07;6.80;;;2.63;;
41653;SDS011;30790;52.030;7.110;2022-10-22T06:23:37;5.88;;;2.03;;
41653;SDS011;30790;52.030;7.110;2022-10-22T06:26:04;12.68;;;3.17;;
41653;SDS011;30790;52.030;7.110;2022-10-22T06:28:30;29.60;;;5.55;;
41653;SDS011;30790;52.030;7.110;2022-10-22T06:31:00;16.08;;;2.88;;
41653;SDS011;30790;52.030;7.110;2022-10-22T06:33:27;9.93;;;2.33;;
41653;SDS011;30790;52.030;7.110;2022-10-22T06:35:53;17.17;;;2.50;;
41653;SDS011;30790;52.030;7.110;2022-10-22T06:38:19;13.15;;;2.83;;
41653;SDS011;30790;52.030;7.110;2022-10-22T06:40:44;13.93;;;2.70;;
41653;SDS011;30790;52.030;7.110;2022-10-22T06:43:10;13.45;;;3.13;;
41653;SDS011;30790;52.030;7.110;2022-10-22T06:45:37;13.85;;;3.17;;
41653;SDS011;30790;52.030;7.110;2022-10-22T06:48:02;14.55;;;3.05;;
41653;SDS011;30790;52.030;7.110;2022-10-22T06:50:28;9.63;;;2.40;;
41653;SDS011;30790;52.030;7.110;2022-10-22T06:52:53;13.52;;;2.88;;
41653;SDS011;30790;52.030;7.110;2022-10-22T06:55:18;10.23;;;2.45;;
41653;SDS011;30790;52.030;7.110;2022-10-22T06:57:44;12.73;;;3.08;;
41653;SDS011;30790;52.030;7.110;2022-10-22T07:00:09;16.80;;;2.78;;
41653;SDS011;30790;52.030;7.110;2022-10-22T07:02:35;10.32;;;2.40;;
41653;SDS011;30790;52.030;7.110;2022-10-22T07:05:00;11.00;;;3.00;;
41653;SDS011;30790;52.030;7.110;2022-10-22T07:07:25;6.17;;;1.97;;
41653;SDS011;30790;52.030;7.110;2022-10-22T07:09:51;7.25;;;2.88;;
41653;SDS011;30790;52.030;7.110;2022-10-22T07:12:16;7.83;;;2.80;;
41653;SDS011;30790;52.030;7.110;2022-10-22T07:14:41;9.95;;;3.00;;
41653;SDS011;30790;52.030;7.110;2022-10-22T07:17:07;14.77;;;2.20;;
41653;SDS011;30790;52.030;7.110;2022-10-22T07:19:32;13.07;;;2.88;;
41653;SDS011;30790;52.030;7.110;2022-10-22T07:21:58;7.43;;;2.97;;
41653;SDS011;30790;52.030;7.110;2022-10-22T07:24:23;14.93;;;3.30;;
41653;SDS011;30790;52.030;7.110;2022-10-22T07:26:49;11.77;;;2.65;;
41653;SDS011;30790;52.030;7.110;2022-10-22T07:29:14;10.20;;;2.75;;
41653;SDS011;30790;52.030;7.110;2022-10-22T07:31:40;6.40;;;2.60;;
41653;SDS011;30790;52.030;7.110;2022-10-22T07:34:06;14.98;;;2.50;;
41653;SDS011;30790;52.030;7.110;2022-10-22T07:36:31;12.45;;;3.15;;
41653;SDS011;30790;52.030;7.110;2022-10-22T07:38:57;10.52;;;3.08;;
41653;SDS011;30790;52.030;7.110;2022-10-22T07:41:25;22.45;;;4.10;;
41653;SDS011;30790;52.030;7.110;2022-10-22T07:43:52;20.48;;;3.15;;
41653;SDS011;30790;52.030;7.110;2022-10-22T07:46:17;14.82;;;3.22;;
41653;SDS011;30790;52.030;7.110;2022-10-22T07:48:43;15.30;;;3.28;;
41653;SDS011;30790;52.030;7.110;2022-10-22T07:51:08;9.40;;;3.15;;
41653;SDS011;30790;52.030;7.110;2022-10-22T07:53:34;18.23;;;3.25;;
41653;SDS011;30790;52.030;7.110;2022-10-22T08:02:47;9.15;;;3.15;;
41653;SDS011;30790;52.030;7.110;2022-10-22T08:11:59;11.50;;;2.90;;
41653;SDS011;30790;52.030;7.110;2022-10-22T08:14:24;21.45;;;4.55;;
41653;SDS011;30790;52.030;7.110;2022-10-22T08:19:55;10.10;;;3.38;;
41653;SDS011;30790;52.030;7.110;2022-10-22T08:22:20;16.63;;;3.50;;
41653;SDS011;30790;52.030;7.110;2022-10-22T08:24:46;18.88;;;3.55;;
41653;SDS011;30790;52.030;7.110;2022-10-22T08:27:11;15.25;;;3.33;;
41653;SDS011;30790;52.030;7.110;2022-10-22T08:29:36;18.10;;;3.53;;
41653;SDS011;30790;52.030;7.110;2022-10-22T08:32:02;25.45;;;5.03;;
41653;SDS011;30790;52.030;7.110;2022-10-22T08:34:27;18.65;;;3.75;;
41653;SDS011;30790;52.030;7.110;2022-10-22T08:36:53;12.98;;;3.13;;
41653;SDS011;30790;52.030;7.110;2022-10-22T08:39:19;25.70;;;4.32;;
41653;SDS011;30790;52.030;7.110;2022-10-22T08:41:51;12.55;;;3.58;;
41653;SDS011;30790;52.030;7.110;2022-10-22T08:49:43;32.63;;;5.38;;
41653;SDS011;30790;52.030;7.110;2022-10-22T08:52:12;19.33;;;4.38;;
41653;SDS011;30790;52.030;7.110;2022-10-22T08:54:53;53.13;;;8.70;;
41653;SDS011;30790;52.030;7.110;2022-10-22T09:00:00;217.30;;;22.93;;
41653;SDS011;30790;52.030;7.110;2022-10-22T09:07:58;10.50;;;2.50;;
41653;SDS011;30790;52.030;7.110;2022-10-22T09:10:24;169.10;;;22.65;;
41653;SDS011;30790;52.030;7.110;2022-10-22T09:12:53;83.10;;;9.48;;
41653;SDS011;30790;52.030;7.110;2022-10-22T09:15:19;181.88;;;20.08;;
41653;SDS011;30790;52.030;7.110;2022-10-22T09:17:49;110.28;;;13.85;;
41653;SDS011;30790;52.030;7.110;2022-10-22T09:20:19;122.10;;;12.80;;
41653;SDS011;30790;52.030;7.110;2022-10-22T09:25:51;174.13;;;21.08;;
41653;SDS011;30790;52.030;7.110;2022-10-22T09:28:17;98.93;;;11.73;;
41653;SDS011;30790;52.030;7.110;2022-10-22T09:30:43;69.15;;;12.52;;
41653;SDS011;30790;52.030;7.110;2022-10-22T09:33:11;23.73;;;4.35;;
41653;SDS011;30790;52.030;7.110;2022-10-22T09:38:18;37.80;;;5.35;;
41653;SDS011;30790;52.030;7.110;2022-10-22T09:40:49;23.13;;;4.40;;
41653;SDS011;30790;52.030;7.110;2022-10-22T09:43:16;20.05;;;4.63;;
41653;SDS011;30790;52.030;7.110;2022-10-22T09:45:42;21.02;;;4.07;;
41653;SDS011;30790;52.030;7.110;2022-10-22T09:48:19;46.85;;;7.35;;
41653;SDS011;30790;52.030;7.110;2022-10-22T09:50:54;20.67;;;4.13;;
41653;SDS011;30790;52.030;7.110;2022-10-22T09:53:25;27.52;;;4.57;;
41653;SDS011;30790;52.030;7.110;2022-10-22T09:55:55;33.83;;;6.05;;
41653;SDS011;30790;52.030;7.110;2022-10-22T09:58:25;23.77;;;5.05;;
41653;SDS011;30790;52.030;7.110;2022-10-22T10:00:53;30.25;;;5.30;;
41653;SDS011;30790;52.030;7.110;2022-10-22T10:03:21;21.98;;;5.22;;
41653;SDS011;30790;52.030;7.110;2022-10-22T10:05:53;18.83;;;5.57;;
41653;SDS011;30790;52.030;7.110;2022-10-22T10:08:21;23.15;;;5.18;;
41653;SDS011;30790;52.030;7.110;2022-10-22T10:10:48;23.90;;;5.00;;
41653;SDS011;30790;52.030;7.110;2022-10-22T10:13:20;21.13;;;4.30;;
41653;SDS011;30790;52.030;7.110;2022-10-22T10:18:56;21.80;;;5.22;;
41653;SDS011;30790;52.030;7.110;2022-10-22T10:21:47;19.05;;;5.03;;
41653;SDS011;30790;52.030;7.110;2022-10-22T10:24:25;22.17;;;5.28;;
41653;SDS011;30790;52.030;7.110;2022-10-22T10:27:01;19.60;;;4.97;;
41653;SDS011;30790;52.030;7.110;2022-10-22T10:37:17;20.23;;;4.82;;
41653;SDS011;30790;52.030;7.110;2022-10-22T10:39:53;27.63;;;4.82;;
41653;SDS011;30790;52.030;7.110;2022-10-22T10:50:44;18.88;;;4.63;;
41653;SDS011;30790;52.030;7.110;2022-10-22T10:59:05;25.85;;;5.57;;
41653;SDS011;30790;52.030;7.110;2022-10-22T11:01:41;20.17;;;5.35;;
41653;SDS011;30790;52.030;7.110;2022-10-22T11:07:39;24.45;;;5.88;;
41653;SDS011;30790;52.030;7.110;2022-10-22T11:12:47;26.95;;;6.55;;
41653;SDS011;30790;52.030;7.110;2022-10-22T11:15:23;25.33;;;6.40;;
41653;SDS011;30790;52.030;7.110;2022-10-22T11:17:58;32.10;;;6.63;;
41653;SDS011;30790;52.030;7.110;2022-10-22T11:23:13;29.48;;;6.38;;
41653;SDS011;30790;52.030;7.110;2022-10-22T11:25:44;22.58;;;6.32;;
41653;SDS011;30790;52.030;7.110;2022-10-22T11:28:13;31.05;;;7.10;;
41653;SDS011;30790;52.030;7.110;2022-10-22T11:30:44;32.50;;;6.72;;
41653;SDS011;30790;52.030;7.110;2022-10-22T11:33:15;37.92;;;6.13;;
41653;SDS011;30790;52.030;7.110;2022-10-22T11:35:45;26.48;;;5.70;;
41653;SDS011;30790;52.030;7.110;2022-10-22T11:38:13;41.53;;;7.40;;
41653;SDS011;30790;52.030;7.110;2022-10-22T11:40:50;27.83;;;6.45;;
41653;SDS011;30790;52.030;7.110;2022-10-22T11:48:40;24.52;;;6.35;;
41653;SDS011;30790;52.030;7.110;2022-10-22T11:53:57;27.20;;;6.22;;
41653;SDS011;30790;52.030;7.110;2022-10-22T11:56:26;28.38;;;5.90;;
41653;SDS011;30790;52.030;7.110;2022-10-22T11:59:00;26.55;;;6.50;;
41653;SDS011;30790;52.030;7.110;2022-10-22T12:01:27;27.35;;;6.25;;
41653;SDS011;30790;52.030;7.110;2022-10-22T12:06:25;28.48;;;5.90;;
41653;SDS011;30790;52.030;7.110;2022-10-22T12:11:36;19.63;;;6.73;;
41653;SDS011;30790;52.030;7.110;2022-10-22T12:14:12;26.05;;;6.20;;
41653;SDS011;30790;52.030;7.110;2022-10-22T12:16:45;27.08;;;6.43;;
41653;SDS011;30790;52.030;7.110;2022-10-22T12:22:31;35.87;;;6.07;;
41653;SDS011;30790;52.030;7.110;2022-10-22T12:24:38;27.85;;;6.78;;
41653;SDS011;30790;52.030;7.110;2022-10-22T12:27:24;27.77;;;6.60;;
41653;SDS011;30790;52.030;7.110;2022-10-22T12:29:52;22.92;;;6.03;;
41653;SDS011;30790;52.030;7.110;2022-10-22T12:32:20;35.08;;;6.43;;
41653;SDS011;30790;52.030;7.110;2022-10-22T12:34:49;26.00;;;6.82;;
41653;SDS011;30790;52.030;7.110;2022-10-22T12:37:16;21.27;;;6.05;;
41653;SDS011;30790;52.030;7.110;2022-10-22T12:39:43;18.63;;;5.43;;
41653;SDS011;30790;52.030;7.110;2022-10-22T12:42:13;23.33;;;6.00;;
41653;SDS011;30790;52.030;7.110;2022-10-22T12:44:41;23.85;;;5.35;;
41653;SDS011;30790;52.030;7.110;2022-10-22T12:47:10;27.33;;;6.05;;
41653;SDS011;30790;52.030;7.110;2022-10-22T12:49:41;20.65;;;5.65;;
41653;SDS011;30790;52.030;7.110;2022-10-22T12:52:12;21.70;;;5.57;;
41653;SDS011;30790;52.030;7.110;2022-10-22T12:54:40;26.75;;;6.82;;
41653;SDS011;30790;52.030;7.110;2022-10-22T12:57:08;21.35;;;6.07;;
41653;SDS011;30790;52.030;7.110;2022-10-22T12:59:37;20.60;;;6.22;;
41653;SDS011;30790;52.030;7.110;2022-10-22T13:02:11;25.75;;;6.07;;
41653;SDS011;30790;52.030;7.110;2022-10-22T13:05:02;22.23;;;5.80;;
41653;SDS011;30790;52.030;7.110;2022-10-22T13:07:38;20.70;;;5.80;;
41653;SDS011;30790;52.030;7.110;2022-10-22T13:12:57;19.88;;;6.05;;
41653;SDS011;30790;52.030;7.110;2022-10-22T13:17:59;20.48;;;5.18;;
41653;SDS011;30790;52.030;7.110;2022-10-22T13:20:52;18.25;;;5.28;;
41653;SDS011;30790;52.030;7.110;2022-10-22T13:23:19;17.38;;;5.20;;
41653;SDS011;30790;52.030;7.110;2022-10-22T13:25:55;19.83;;;5.70;;
41653;SDS011;30790;52.030;7.110;2022-10-22T13:28:22;20.67;;;4.90;;
41653;SDS011;30790;52.030;7.110;2022-10-22T13:30:52;16.95;;;4.90;;
41653;SDS011;30790;52.030;7.110;2022-10-22T13:33:26;25.90;;;5.53;;
41653;SDS011;30790;52.030;7.110;2022-10-22T13:35:56;22.10;;;4.97;;
41653;SDS011;30790;52.030;7.110;2022-10-22T13:38:23;27.30;;;6.40;;
41653;SDS011;30790;52.030;7.110;2022-10-22T13:40:49;20.05;;;5.10;;
41653;SDS011;30790;52.030;7.110;2022-10-22T13:43:15;25.83;;;6.22;;
41653;SDS011;30790;52.030;7.110;2022-10-22T13:45:42;20.30;;;4.90;;
41653;SDS011;30790;52.030;7.110;2022-10-22T13:48:14;21.05;;;5.35;;
41653;SDS011;30790;52.030;7.110;2022-10-22T13:50:40;17.73;;;5.43;;
41653;SDS011;30790;52.030;7.110;2022-10-22T13:53:08;16.45;;;5.13;;
41653;SDS011;30790;52.030;7.110;2022-10-22T13:55:41;16.38;;;5.43;;
41653;SDS011;30790;52.030;7.110;2022-10-22T13:58:09;18.35;;;5.13;;
41653;SDS011;30790;52.030;7.110;2022-10-22T14:00:36;20.23;;;5.47;;
41653;SDS011;30790;52.030;7.110;2022-10-22T14:03:03;16.25;;;4.88;;
41653;SDS011;30790;52.030;7.110;2022-10-22T14:05:29;20.20;;;5.20;;
41653;SDS011;30790;52.030;7.110;2022-10-22T14:07:57;19.33;;;5.63;;
41653;SDS011;30790;52.030;7.110;2022-10-22T14:10:23;21.67;;;5.57;;
41653;SDS011;30790;52.030;7.110;2022-10-22T14:12:49;15.32;;;4.63;;
41653;SDS011;30790;52.030;7.110;2022-10-22T14:15:16;17.77;;;5.53;;
41653;SDS011;30790;52.030;7.110;2022-10-22T14:17:44;19.98;;;5.38;;
41653;SDS011;30790;52.030;7.110;2022-10-22T14:20:17;12.82;;;4.93;;
41653;SDS011;30790;52.030;7.110;2022-10-22T14:22:45;21.48;;;4.95;;
41653;SDS011;30790;52.030;7.110;2022-10-22T14:25:13;20.63;;;5.43;;
41653;SDS011;30790;52.030;7.110;2022-10-22T14:27:39;16.42;;;4.78;;
41653;SDS011;30790;52.030;7.110;2022-10-22T14:30:05;15.18;;;5.13;;
41653;SDS011;30790;52.030;7.110;2022-10-22T14:32:30;16.27;;;4.68;;
41653;SDS011;30790;52.030;7.110;2022-10-22T14:34:55;18.02;;;5.30;;
41653;SDS011;30790;52.030;7.110;2022-10-22T14:37:23;14.32;;;5.00;;
41653;SDS011;30790;52.030;7.110;2022-10-22T14:39:48;15.20;;;5.15;;
41653;SDS011;30790;52.030;7.110;2022-10-22T14:42:17;14.35;;;4.45;;
41653;SDS011;30790;52.030;7.110;2022-10-22T14:44:44;16.42;;;5.53;;
41653;SDS011;30790;52.030;7.110;2022-10-22T14:47:10;17.55;;;5.95;;
41653;SDS011;30790;52.030;7.110;2022-10-22T14:49:35;12.57;;;4.30;;
41653;SDS011;30790;52.030;7.110;2022-10-22T14:52:00;13.60;;;3.67;;
41653;SDS011;30790;52.030;7.110;2022-10-22T14:54:25;13.50;;;4.63;;
41653;SDS011;30790;52.030;7.110;2022-10-22T14:56:51;14.35;;;4.90;;
41653;SDS011;30790;52.030;7.110;2022-10-22T14:59:16;17.25;;;4.50;;
41653;SDS011;30790;52.030;7.110;2022-10-22T15:01:41;16.70;;;5.07;;
41653;SDS011;30790;52.030;7.110;2022-10-22T15:04:07;15.25;;;4.25;;
41653;SDS011;30790;52.030;7.110;2022-10-22T15:06:33;17.80;;;5.13;;
41653;SDS011;30790;52.030;7.110;2022-10-22T15:08:59;16.42;;;5.28;;
41653;SDS011;30790;52.030;7.110;2022-10-22T15:11:25;20.60;;;5.47;;
41653;SDS011;30790;52.030;7.110;2022-10-22T15:13:50;13.82;;;4.47;;
41653;SDS011;30790;52.030;7.110;2022-10-22T15:16:16;13.13;;;4.55;;
41653;SDS011;30790;52.030;7.110;2022-10-22T15:18:42;17.75;;;4.95;;
41653;SDS011;30790;52.030;7.110;2022-10-22T15:21:11;12.98;;;4.07;;
41653;SDS011;30790;52.030;7.110;2022-10-22T15:23:39;10.68;;;4.05;;
41653;SDS011;30790;52.030;7.110;2022-10-22T15:26:08;16.00;;;4.78;;
41653;SDS011;30790;52.030;7.110;2022-10-22T15:28:35;13.68;;;4.35;;
41653;SDS011;30790;52.030;7.110;2022-10-22T15:31:02;11.60;;;4.93;;
41653;SDS011;30790;52.030;7.110;2022-10-22T15:33:27;15.88;;;5.32;;
41653;SDS011;30790;52.030;7.110;2022-10-22T15:35:54;13.65;;;4.22;;
41653;SDS011;30790;52.030;7.110;2022-10-22T15:38:20;12.77;;;4.53;;
41653;SDS011;30790;52.030;7.110;2022-10-22T15:40:46;11.57;;;4.88;;
41653;SDS011;30790;52.030;7.110;2022-10-22T15:43:12;9.57;;;3.80;;
41653;SDS011;30790;52.030;7.110;2022-10-22T15:45:38;14.15;;;4.97;;
41653;SDS011;30790;52.030;7.110;2022-10-22T15:48:03;17.63;;;4.97;;
41653;SDS011;30790;52.030;7.110;2022-10-22T15:50:29;18.08;;;5.38;;
41653;SDS011;30790;52.030;7.110;2022-10-22T15:52:55;18.45;;;5.03;;
41653;SDS011;30790;52.030;7.110;2022-10-22T15:55:20;21.02;;;5.20;;
41653;SDS011;30790;52.030;7.110;2022-10-22T15:57:46;15.77;;;4.88;;
41653;SDS011;30790;52.030;7.110;2022-10-22T16:00:11;15.93;;;4.78;;
41653;SDS011;30790;52.030;7.110;2022-10-22T16:02:37;11.55;;;4.57;;
41653;SDS011;30790;52.030;7.110;2022-10-22T16:05:03;16.63;;;3.85;;
41653;SDS011;30790;52.030;7.110;2022-10-22T16:07:29;11.98;;;4.10;;
41653;SDS011;30790;52.030;7.110;2022-10-22T16:09:57;18.42;;;4.63;;
41653;SDS011;30790;52.030;7.110;2022-10-22T16:12:24;14.23;;;4.35;;
41653;SDS011;30790;52.030;7.110;2022-10-22T16:14:49;17.55;;;4.53;;
41653;SDS011;30790;52.030;7.110;2022-10-22T16:17:15;15.45;;;4.20;;
41653;SDS011;30790;52.030;7.110;2022-10-22T16:19:41;13.23;;;5.00;;
41653;SDS011;30790;52.030;7.110;2022-10-22T16:22:06;9.48;;;4.05;;
41653;SDS011;30790;52.030;7.110;2022-10-22T16:24:34;14.52;;;4.00;;
41653;SDS011;30790;52.030;7.110;2022-10-22T16:26:59;13.60;;;4.38;;
41653;SDS011;30790;52.030;7.110;2022-10-22T16:29:24;9.75;;;3.72;;
41653;SDS011;30790;52.030;7.110;2022-10-22T16:31:50;11.98;;;4.45;;
41653;SDS011;30790;52.030;7.110;2022-10-22T16:34:15;19.65;;;5.07;;
41653;SDS011;30790;52.030;7.110;2022-10-22T16:36:40;32.30;;;6.57;;
41653;SDS011;30790;52.030;7.110;2022-10-22T16:39:06;10.52;;;3.92;;
41653;SDS011;30790;52.030;7.110;2022-10-22T16:41:31;11.77;;;3.97;;
41653;SDS011;30790;52.030;7.110;2022-10-22T16:44:01;18.73;;;4.03;;